Terminal Aerodrome Forecast
Issued by NWS

Home | Current Version | Previous Version | Text Only | Print | Product List | Glossary Off
Versions: 1 2 3 4 5 6 7 8 9 10 11 12 13 14 15 16 17

000
FTUS42 KMHX 240223 AAA
TAFPGV
TAF AMD
KPGV 240223Z 2402/2424 11010G15KT P6SM VCSH SCT040
     FM240600 10015G20KT 6SM -RA OVC030
     FM241000 10015G20KT 4SM RA OVC008
     FM241300 10015G25KT 2SM +SHRA OVC008
     FM241800 12015KT 6SM -SHRA OVC007
     FM242300 13010KT P6SM SCT007
      AMD LTD TO CLD VIS AND WIND=

USA.gov is the U.S. government's official web portal to all federal, state and local government web resources and services.